createdAt,value
2014-08-13T00:00:34.993Z,19.78
2014-08-13T00:01:39.965Z,19.77
2014-08-13T00:02:43.966Z,19.72
2014-08-13T00:03:48.938Z,19.74
2014-08-13T00:04:53.626Z,19.61
2014-08-13T00:05:58.598Z,19.75
2014-08-13T00:07:03.585Z,19.82
2014-08-13T00:08:08.571Z,19.77
2014-08-13T00:09:13.556Z,19.81
2014-08-13T00:10:18.230Z,19.8
2014-08-13T00:11:22.936Z,19.78
2014-08-13T00:12:27.626Z,19.83
2014-08-13T00:13:32.300Z,19.64
2014-08-13T00:14:36.989Z,19.82
2014-08-13T00:15:41.976Z,19.58
2014-08-13T00:16:46.649Z,19.65
2014-08-13T00:17:51.339Z,19.62
2014-08-13T00:18:56.326Z,19.63
2014-08-13T00:20:01.015Z,19.28
2014-08-13T00:21:05.689Z,19.53
2014-08-13T00:22:10.378Z,19.71
2014-08-13T00:23:15.052Z,19.69
2014-08-13T00:24:19.743Z,19.33
2014-08-13T00:25:24.431Z,19.38
2014-08-13T00:26:29.105Z,19.2
2014-08-13T00:27:33.779Z,19.23
2014-08-13T00:28:38.469Z,19.28
2014-08-13T00:29:43.159Z,19.37
2014-08-13T00:30:47.833Z,19.46
2014-08-13T00:31:52.522Z,19.23
2014-08-13T00:32:57.493Z,19.06
2014-08-13T00:34:02.479Z,19.18
2014-08-13T00:35:07.466Z,19.22
2014-08-13T00:36:12.435Z,19.22
2014-08-13T00:37:17.126Z,19.24
2014-08-13T00:38:21.800Z,19.12
2014-08-13T00:39:26.786Z,19.31
2014-08-13T00:40:31.460Z,19.19
2014-08-13T00:41:36.743Z,19.24
2014-08-13T00:42:41.433Z,19.09
2014-08-13T00:43:46.404Z,19.38
2014-08-13T00:44:50.407Z,19.28
2014-08-13T00:45:55.080Z,19.27
2014-08-13T00:47:00.082Z,19.31
2014-08-13T00:48:05.053Z,19.37
2014-08-13T00:49:10.039Z,19.11
2014-08-13T00:50:15.026Z,18.96
2014-08-13T00:51:19.700Z,19.13
2014-08-13T00:52:24.389Z,19.21
2014-08-13T00:53:29.079Z,18.83
2014-08-13T00:54:33.753Z,19
2014-08-13T00:55:38.739Z,19.14
2014-08-13T00:56:43.725Z,19.22
2014-08-13T00:57:48.399Z,19.36
2014-08-13T00:58:53.387Z,19.41
2014-08-13T00:59:58.372Z,19.46
2014-08-13T01:01:03.358Z,19.3
2014-08-13T01:02:08.032Z,19.07
2014-08-13T01:03:13.019Z,19
2014-08-13T01:04:17.694Z,18.99
2014-08-13T01:05:22.680Z,19.03
2014-08-13T01:06:27.369Z,19.16
2014-08-13T01:07:32.042Z,19.27
2014-08-13T01:08:36.733Z,19.43
2014-08-13T01:09:41.406Z,19.5
2014-08-13T01:10:46.096Z,19.43
2014-08-13T01:11:50.770Z,19.44
2014-08-13T01:12:55.756Z,19.4
2014-08-13T01:14:00.727Z,19.36
2014-08-13T01:15:05.417Z,19.39
2014-08-13T01:16:10.106Z,19.34
2014-08-13T01:17:14.796Z,19.38
2014-08-13T01:18:19.767Z,19.47
2014-08-13T01:19:24.753Z,19.48
2014-08-13T01:20:29.429Z,19.46
2014-08-13T01:21:34.118Z,19.55
2014-08-13T01:22:38.792Z,19.18
2014-08-13T01:23:43.482Z,19.07
2014-08-13T01:24:48.155Z,19.06
2014-08-13T01:25:52.845Z,18.92
2014-08-13T01:26:57.519Z,19.36
2014-08-13T01:28:02.505Z,19.23
2014-08-13T01:29:07.196Z,18.97
2014-08-13T01:30:11.870Z,19
2014-08-13T01:31:16.559Z,18.91
2014-08-13T01:32:21.233Z,18.96
2014-08-13T01:33:25.922Z,18.99
2014-08-13T01:34:30.595Z,18.89
2014-08-13T01:35:35.582Z,18.99
2014-08-13T01:36:40.272Z,18.9
2014-08-13T01:37:45.259Z,19.13
2014-08-13T01:38:50.229Z,18.98
2014-08-13T01:39:54.919Z,18.88
2014-08-13T01:40:59.608Z,19
2014-08-13T01:42:04.282Z,19.05
2014-08-13T01:43:09.269Z,19.17
2014-08-13T01:44:13.958Z,19.17
2014-08-13T01:45:18.632Z,19.08
2014-08-13T01:46:23.321Z,19.16
2014-08-13T01:47:28.308Z,19.12
2014-08-13T01:48:33.575Z,19.26
2014-08-13T01:49:38.562Z,19.06
2014-08-13T01:50:43.236Z,18.68
2014-08-13T01:51:47.926Z,19
2014-08-13T01:52:52.897Z,19.23
2014-08-13T01:53:57.586Z,19.29
2014-08-13T01:55:02.556Z,18.85
2014-08-13T01:56:07.246Z,18.56
2014-08-13T01:57:11.921Z,18.48
2014-08-13T01:58:16.907Z,18.53
2014-08-13T01:59:21.893Z,18.34
2014-08-13T02:00:26.567Z,18.62
2014-08-13T02:01:31.257Z,18.58
2014-08-13T02:02:35.931Z,18.53
2014-08-13T02:03:40.620Z,18.48
2014-08-13T02:04:45.310Z,18.51
2014-08-13T02:05:49.983Z,18.44
2014-08-13T02:06:54.673Z,18.51
2014-08-13T02:07:59.347Z,18.37
2014-08-13T02:09:04.036Z,18.37
2014-08-13T02:10:08.710Z,18.45
2014-08-13T02:11:13.400Z,18.46
2014-08-13T02:12:18.372Z,18.42
2014-08-13T02:13:23.358Z,18.39
2014-08-13T02:14:28.048Z,18.34
2014-08-13T02:15:32.722Z,18.47
2014-08-13T02:16:37.412Z,18.29
2014-08-13T02:17:42.398Z,18.53
2014-08-13T02:18:47.369Z,18.36
2014-08-13T02:19:51.668Z,18.53
2014-08-13T02:20:56.357Z,18.36
2014-08-13T02:22:01.031Z,18.46
2014-08-13T02:23:05.721Z,18.71
2014-08-13T02:24:10.707Z,18.72
2014-08-13T02:25:15.396Z,18.47
2014-08-13T02:26:20.367Z,18.28
2014-08-13T02:27:25.058Z,18.22
2014-08-13T02:28:29.731Z,18.12
2014-08-13T02:29:34.421Z,18.15
2014-08-13T02:30:39.094Z,18.2
2014-08-13T02:31:44.080Z,18.22
2014-08-13T02:32:49.051Z,18.2
2014-08-13T02:33:53.741Z,18.25
2014-08-13T02:34:58.711Z,18.24
2014-08-13T02:36:03.402Z,18.22
2014-08-13T02:37:08.075Z,18.3
2014-08-13T02:38:12.765Z,18.22
2014-08-13T02:39:17.439Z,18.58
2014-08-13T02:40:22.441Z,18.55
2014-08-13T02:41:27.709Z,18.68
2014-08-13T02:42:32.398Z,19
2014-08-13T02:43:37.072Z,19
2014-08-13T02:44:42.355Z,18.75
2014-08-13T02:45:47.029Z,18.65
2014-08-13T02:46:51.719Z,18.5
2014-08-13T02:47:56.689Z,18.5
2014-08-13T02:49:01.379Z,18.35
2014-08-13T02:50:06.053Z,18.44
2014-08-13T02:51:10.742Z,18.45
2014-08-13T02:52:15.713Z,18.74
2014-08-13T02:53:20.404Z,18.78
2014-08-13T02:54:25.076Z,18.78
2014-08-13T02:55:29.766Z,18.78
2014-08-13T02:56:34.737Z,18.48
2014-08-13T02:57:39.723Z,18.15
2014-08-13T02:58:44.725Z,17.9
2014-08-13T02:59:49.399Z,18.32
2014-08-13T03:00:54.088Z,18.6
2014-08-13T03:01:59.076Z,18.78
2014-08-13T03:03:03.764Z,18.69
2014-08-13T03:04:08.487Z,18.66
2014-08-13T03:05:13.161Z,18.8
2014-08-13T03:06:17.850Z,18.74
2014-08-13T03:07:22.837Z,18.73
2014-08-13T03:08:27.824Z,18.68
2014-08-13T03:09:32.497Z,18.82
2014-08-13T03:10:37.188Z,18.74
2014-08-13T03:11:42.157Z,18.74
2014-08-13T03:12:47.144Z,18.8
2014-08-13T03:13:52.115Z,18.75
2014-08-13T03:14:57.102Z,18.98
2014-08-13T03:16:01.776Z,18.92
2014-08-13T03:17:06.465Z,18.88
2014-08-13T03:18:11.139Z,18.82
2014-08-13T03:19:15.829Z,18.82
2014-08-13T03:20:20.502Z,18.66
2014-08-13T03:21:25.786Z,18.61
2014-08-13T03:22:30.475Z,18.59
2014-08-13T03:23:35.446Z,18.68
2014-08-13T03:24:40.135Z,18.52
2014-08-13T03:25:45.106Z,18.11
2014-08-13T03:26:49.796Z,17.97
2014-08-13T03:27:54.485Z,18.26
2014-08-13T03:28:59.159Z,18.31
2014-08-13T03:30:04.145Z,18.24
2014-08-13T03:31:08.819Z,18.32
2014-08-13T03:32:13.509Z,18.58
2014-08-13T03:33:18.183Z,18.43
2014-08-13T03:34:22.872Z,18.46
2014-08-13T03:35:27.859Z,18.48
2014-08-13T03:36:32.533Z,18.6
2014-08-13T03:37:37.519Z,18.76
2014-08-13T03:38:42.505Z,18.77
2014-08-13T03:39:47.476Z,18.12
2014-08-13T03:40:52.165Z,18.21
2014-08-13T03:41:56.856Z,18.15
2014-08-13T03:43:01.529Z,18.24
2014-08-13T03:44:06.218Z,18.6
2014-08-13T03:45:11.205Z,18.81
2014-08-13T03:46:15.894Z,18.68
2014-08-13T03:47:20.868Z,18.65
2014-08-13T03:48:25.556Z,18.44
2014-08-13T03:49:30.246Z,18.04
2014-08-13T03:50:34.936Z,18.04
2014-08-13T03:51:39.625Z,18.19
2014-08-13T03:52:44.314Z,18.18
2014-08-13T03:53:48.988Z,18.25
2014-08-13T03:54:53.679Z,18.37
2014-08-13T03:55:58.352Z,18.41
2014-08-13T03:57:03.042Z,18.56
2014-08-13T03:58:07.715Z,18.74
2014-08-13T03:59:12.406Z,18.66
2014-08-13T04:00:17.376Z,18.5
2014-08-13T04:01:22.066Z,18.38
2014-08-13T04:02:26.740Z,18.34
2014-08-13T04:03:31.725Z,18.42
2014-08-13T04:04:36.994Z,18.52
2014-08-13T04:05:41.683Z,18.52
2014-08-13T04:06:46.373Z,18.2
2014-08-13T04:07:51.047Z,18.07
2014-08-13T04:08:55.735Z,17.76
2014-08-13T04:10:00.707Z,17.96
2014-08-13T04:11:05.396Z,18.06
2014-08-13T04:12:10.664Z,18.03
2014-08-13T04:13:15.353Z,18.08
2014-08-13T04:14:20.027Z,18.18
2014-08-13T04:15:24.717Z,18.26
2014-08-13T04:16:29.406Z,18.43
2014-08-13T04:17:34.096Z,18.29
2014-08-13T04:18:38.770Z,18.36
2014-08-13T04:19:43.756Z,18.52
2014-08-13T04:20:48.430Z,18.64
2014-08-13T04:21:53.119Z,18.66
2014-08-13T04:22:57.809Z,18.64
2014-08-13T04:24:02.483Z,18.65
2014-08-13T04:25:07.172Z,18.82
2014-08-13T04:26:11.863Z,18.66
2014-08-13T04:27:16.537Z,18.12
2014-08-13T04:28:21.539Z,18.01
2014-08-13T04:29:26.213Z,17.76
2014-08-13T04:30:31.199Z,17.95
2014-08-13T04:31:35.888Z,18.17
2014-08-13T04:32:40.593Z,18.24
2014-08-13T04:33:45.267Z,18.51
2014-08-13T04:34:50.253Z,18.43
2014-08-13T04:35:54.943Z,18.28
2014-08-13T04:36:59.617Z,18.23
2014-08-13T04:38:04.307Z,18.18
2014-08-13T04:39:09.277Z,18.13
2014-08-13T04:40:13.968Z,18.09
2014-08-13T04:41:18.641Z,18.12
2014-08-13T04:42:23.330Z,17.78
2014-08-13T04:43:28.004Z,17.85
2014-08-13T04:44:33.289Z,17.82
2014-08-13T04:45:38.260Z,17.82
2014-08-13T04:46:42.950Z,17.96
2014-08-13T04:47:47.921Z,17.93
2014-08-13T04:48:52.907Z,17.93
2014-08-13T04:49:57.893Z,18.11
2014-08-13T04:51:03.162Z,18.13
2014-08-13T04:52:07.851Z,18.05
2014-08-13T04:53:12.525Z,17.9
2014-08-13T04:54:17.215Z,18.1
2014-08-13T04:55:22.185Z,18.24
2014-08-13T04:56:27.171Z,17.95
2014-08-13T04:57:31.876Z,18.25
2014-08-13T04:58:36.550Z,18.44
2014-08-13T04:59:41.240Z,18.46
2014-08-13T05:00:46.210Z,18.32
2014-08-13T05:01:50.901Z,18.56
2014-08-13T05:02:55.589Z,18.65
2014-08-13T05:04:00.576Z,18.66
2014-08-13T05:05:05.250Z,18.72
2014-08-13T05:06:09.940Z,18.5
2014-08-13T05:07:14.614Z,18.43
2014-08-13T05:08:19.600Z,18.59
2014-08-13T05:09:24.290Z,18.46
2014-08-13T05:10:28.963Z,18.56
2014-08-13T05:11:33.950Z,18.41
2014-08-13T05:12:38.624Z,18.48
2014-08-13T05:13:43.313Z,18.39
2014-08-13T05:14:48.284Z,17.74
2014-08-13T05:15:52.583Z,17.94
2014-08-13T05:16:57.257Z,17.72
2014-08-13T05:18:01.946Z,17.69
2014-08-13T05:19:06.620Z,17.83
2014-08-13T05:20:11.310Z,17.98
2014-08-13T05:21:15.983Z,18.18
2014-08-13T05:22:20.674Z,18.44
2014-08-13T05:23:25.348Z,18.61
2014-08-13T05:24:30.037Z,18.72
2014-08-13T05:25:34.710Z,18.66
2014-08-13T05:26:39.698Z,18.18
2014-08-13T05:27:44.683Z,18.08
2014-08-13T05:28:49.655Z,17.74
2014-08-13T05:29:54.640Z,17.86
2014-08-13T05:30:59.330Z,17.93
2014-08-13T05:32:04.302Z,17.97
2014-08-13T05:33:08.992Z,17.9
2014-08-13T05:34:13.963Z,18.05
2014-08-13T05:35:18.652Z,17.97
2014-08-13T05:36:23.623Z,18.17
2014-08-13T05:37:28.610Z,18.11
2014-08-13T05:38:33.283Z,18.04
2014-08-13T05:39:37.973Z,18.24
2014-08-13T05:40:43.257Z,18.36
2014-08-13T05:41:47.931Z,18.36
2014-08-13T05:42:52.619Z,18.34
2014-08-13T05:43:57.294Z,18.18
2014-08-13T05:45:02.280Z,18.31
2014-08-13T05:46:07.266Z,18.18
2014-08-13T05:47:11.940Z,18.13
2014-08-13T05:48:16.615Z,18.3
2014-08-13T05:49:21.303Z,18.29
2014-08-13T05:50:26.587Z,18.34
2014-08-13T05:51:31.261Z,18.27
2014-08-13T05:52:35.950Z,18.38
2014-08-13T05:53:40.625Z,18.5
2014-08-13T05:54:45.314Z,18.44
2014-08-13T05:55:49.987Z,18.44
2014-08-13T05:56:54.677Z,18.44
2014-08-13T05:57:59.648Z,18.46
2014-08-13T05:59:04.338Z,18.44
2014-08-13T06:00:09.012Z,18.38
2014-08-13T06:01:13.998Z,18.4
2014-08-13T06:02:18.672Z,18.43
2014-08-13T06:03:23.361Z,18.43
2014-08-13T06:04:28.051Z,18.48
2014-08-13T06:05:32.725Z,18.47
2014-08-13T06:06:37.711Z,18.38
2014-08-13T06:07:42.401Z,18.25
2014-08-13T06:08:47.090Z,18.26
2014-08-13T06:09:51.780Z,18.51
2014-08-13T06:10:56.454Z,18.51
2014-08-13T06:12:01.143Z,18.48
2014-08-13T06:13:05.833Z,18.51
2014-08-13T06:14:10.507Z,18.82
2014-08-13T06:15:15.494Z,18.87
2014-08-13T06:16:20.480Z,18.7
2014-08-13T06:17:25.156Z,18.56
2014-08-13T06:18:29.844Z,18.72
2014-08-13T06:19:34.534Z,18.74
2014-08-13T06:20:39.237Z,18.96
2014-08-13T06:21:43.960Z,18.98
2014-08-13T06:22:48.693Z,18.99
2014-08-13T06:23:53.440Z,18.52
2014-08-13T06:24:58.161Z,18.1
2014-08-13T06:26:02.877Z,18.16
2014-08-13T06:27:07.566Z,18.26
2014-08-13T06:28:12.272Z,18.62
2014-08-13T06:29:16.962Z,18.82
2014-08-13T06:30:21.650Z,18.88
2014-08-13T06:31:26.646Z,18.82
2014-08-13T06:32:31.638Z,18.73
2014-08-13T06:33:36.615Z,18.74
2014-08-13T06:34:41.295Z,18.9
2014-08-13T06:35:46.286Z,18.98
2014-08-13T06:36:50.978Z,18.93
2014-08-13T06:37:55.654Z,18.71
2014-08-13T06:39:00.345Z,18.38
2014-08-13T06:40:05.318Z,18.22
2014-08-13T06:41:10.009Z,18.12
2014-08-13T06:42:14.683Z,18
2014-08-13T06:43:19.375Z,17.94
2014-08-13T06:44:24.049Z,17.75
2014-08-13T06:45:28.739Z,17.77
2014-08-13T06:46:33.430Z,18.21
2014-08-13T06:47:38.119Z,18.44
2014-08-13T06:48:43.091Z,18.48
2014-08-13T06:49:47.780Z,18.63
2014-08-13T06:50:52.470Z,18.64
2014-08-13T06:51:57.441Z,18.46
2014-08-13T06:53:02.427Z,18.39
2014-08-13T06:54:07.116Z,18.28
2014-08-13T06:55:12.104Z,18.51
2014-08-13T06:56:16.777Z,18.44
2014-08-13T06:57:21.764Z,18.25
2014-08-13T06:58:26.438Z,17.94
2014-08-13T06:59:31.127Z,17.94
2014-08-13T07:00:35.801Z,18.13
2014-08-13T07:01:40.493Z,18.15
2014-08-13T07:02:45.166Z,18.08
2014-08-13T07:03:49.855Z,18.12
2014-08-13T07:04:54.529Z,18.29
2014-08-13T07:05:59.516Z,18.2
2014-08-13T07:07:04.189Z,18.57
2014-08-13T07:08:08.879Z,18.78
2014-08-13T07:09:13.553Z,18.66
2014-08-13T07:10:18.242Z,18.65
2014-08-13T07:11:22.916Z,18.53
2014-08-13T07:12:27.606Z,18.32
2014-08-13T07:13:32.279Z,18.63
2014-08-13T07:14:36.970Z,18.82
2014-08-13T07:15:41.941Z,18.79
2014-08-13T07:16:46.630Z,18.84
2014-08-13T07:17:51.303Z,19.11
2014-08-13T07:18:55.993Z,19.14
2014-08-13T07:20:00.964Z,18.93
2014-08-13T07:21:05.654Z,18.78
2014-08-13T07:22:10.625Z,18.71
2014-08-13T07:23:15.610Z,19.04
2014-08-13T07:24:20.300Z,19.08
2014-08-13T07:25:24.974Z,18.86
2014-08-13T07:26:29.664Z,18.94
2014-08-13T07:27:34.353Z,19.18
2014-08-13T07:28:39.324Z,19.22
2014-08-13T07:29:44.014Z,19.34
2014-08-13T07:30:48.703Z,19.17
2014-08-13T07:31:53.393Z,19.38
2014-08-13T07:32:58.066Z,19.26
2014-08-13T07:34:03.068Z,18.94
2014-08-13T07:35:08.055Z,18.78
2014-08-13T07:36:12.058Z,18.68
2014-08-13T07:37:17.028Z,18.79
2014-08-13T07:38:21.717Z,18.9
2014-08-13T07:39:26.985Z,19.12
2014-08-13T07:40:31.676Z,19.18
2014-08-13T07:41:36.663Z,19.39
2014-08-13T07:42:41.336Z,19.42
2014-08-13T07:43:46.621Z,19.48
2014-08-13T07:44:51.590Z,19.44
2014-08-13T07:45:56.577Z,19.52
2014-08-13T07:47:01.267Z,19.66
2014-08-13T07:48:06.238Z,19.67
2014-08-13T07:49:10.928Z,19.32
2014-08-13T07:50:15.601Z,18.98
2014-08-13T07:51:20.291Z,18.92
2014-08-13T07:52:24.979Z,18.92
2014-08-13T07:53:29.950Z,18.78
2014-08-13T07:54:34.250Z,18.71
2014-08-13T07:55:39.235Z,18.58
2014-08-13T07:56:44.222Z,18.74
2014-08-13T07:57:48.897Z,18.84
2014-08-13T07:58:53.586Z,18.88
2014-08-13T07:59:58.276Z,18.86
2014-08-13T08:01:03.262Z,18.86
2014-08-13T08:02:07.936Z,18.69
2014-08-13T08:03:12.923Z,18.81
2014-08-13T08:04:18.190Z,18.89
2014-08-13T08:05:23.176Z,18.84
2014-08-13T08:06:27.850Z,18.74
2014-08-13T08:07:32.541Z,18.92
2014-08-13T08:08:37.214Z,18.95
2014-08-13T08:09:41.903Z,18.86
2014-08-13T08:10:45.889Z,18.86
2014-08-13T08:11:50.580Z,18.93
2014-08-13T08:12:55.566Z,19.05
2014-08-13T08:14:00.536Z,19.16
2014-08-13T08:15:05.538Z,19.12
2014-08-13T08:16:10.212Z,18.91
2014-08-13T08:17:14.901Z,18.9
2014-08-13T08:18:19.872Z,19.17
2014-08-13T08:19:24.563Z,19.2
2014-08-13T08:20:29.237Z,19.03
2014-08-13T08:21:33.926Z,19.04
2014-08-13T08:22:38.599Z,18.93
2014-08-13T08:23:43.288Z,18.88
2014-08-13T08:24:47.962Z,19.26
2014-08-13T08:25:52.950Z,19.21
2014-08-13T08:26:58.233Z,19.18
2014-08-13T08:28:02.907Z,19.13
2014-08-13T08:29:07.893Z,19.04
2014-08-13T08:30:12.880Z,19.03
2014-08-13T08:31:17.553Z,19.11
2014-08-13T08:32:22.244Z,18.66
2014-08-13T08:33:26.932Z,18.66
2014-08-13T08:34:31.606Z,18.78
2014-08-13T08:35:36.296Z,18.91
2014-08-13T08:36:40.985Z,18.96
2014-08-13T08:37:45.659Z,19.02
2014-08-13T08:38:50.647Z,19.02
2014-08-13T08:39:55.319Z,19.12
2014-08-13T08:41:00.012Z,19.2
2014-08-13T08:42:04.983Z,19.29
2014-08-13T08:43:09.671Z,19.36
2014-08-13T08:44:14.345Z,19.36
2014-08-13T08:45:19.331Z,19.31
2014-08-13T08:46:24.006Z,19.18
2014-08-13T08:47:28.993Z,19.34
2014-08-13T08:48:33.681Z,19.54
2014-08-13T08:49:38.356Z,19.48
2014-08-13T08:50:43.045Z,19.64
2014-08-13T08:51:47.718Z,19.74
2014-08-13T08:52:52.408Z,19.63
2014-08-13T08:53:57.082Z,19.7
2014-08-13T08:55:01.772Z,19.77
2014-08-13T08:56:06.445Z,19.88
2014-08-13T08:57:11.136Z,19.8
2014-08-13T08:58:16.122Z,19.54
2014-08-13T08:59:21.389Z,19.63
2014-08-13T09:00:26.375Z,19.62
2014-08-13T09:01:31.066Z,19.82
2014-08-13T09:02:36.036Z,20.07
2014-08-13T09:03:41.023Z,19.9
2014-08-13T09:04:45.696Z,19.87
2014-08-13T09:05:50.682Z,19.87
2014-08-13T09:06:55.356Z,19.7
2014-08-13T09:08:00.045Z,19.7
2014-08-13T09:09:04.721Z,19.81
2014-08-13T09:10:09.708Z,19.83
2014-08-13T09:11:14.382Z,19.77
2014-08-13T09:12:19.071Z,19.81
2014-08-13T09:13:23.745Z,19.78
2014-08-13T09:14:28.434Z,19.72
2014-08-13T09:15:33.421Z,19.79
2014-08-13T09:16:38.110Z,19.86
2014-08-13T09:17:42.800Z,19.58
2014-08-13T09:18:47.474Z,19.38
2014-08-13T09:19:52.163Z,19.42
2014-08-13T09:20:57.446Z,19.36
2014-08-13T09:22:02.136Z,19.4
2014-08-13T09:23:07.107Z,19.46
2014-08-13T09:24:12.093Z,19.6
2014-08-13T09:25:17.080Z,19.76
2014-08-13T09:26:21.754Z,19.43
2014-08-13T09:27:26.443Z,19.46
2014-08-13T09:28:31.118Z,19.44
2014-08-13T09:29:36.104Z,19.29
2014-08-13T09:30:40.778Z,19.58
2014-08-13T09:31:45.483Z,19.66
2014-08-13T09:32:50.157Z,19.54
2014-08-13T09:33:54.862Z,19.39
2014-08-13T09:34:59.536Z,19.39
2014-08-13T09:36:04.225Z,19.29
2014-08-13T09:37:09.196Z,19.4
2014-08-13T09:38:13.887Z,19.38
2014-08-13T09:39:18.872Z,19.44
2014-08-13T09:40:23.547Z,19.54
2014-08-13T09:41:28.829Z,19.54
2014-08-13T09:42:33.801Z,19.65
2014-08-13T09:43:38.787Z,19.58
2014-08-13T09:44:43.477Z,19.68
2014-08-13T09:45:48.151Z,19.8
2014-08-13T09:46:52.840Z,19.8
2014-08-13T09:47:57.514Z,19.82
2014-08-13T09:49:02.203Z,19.94
2014-08-13T09:50:06.877Z,19.91
2014-08-13T09:51:11.567Z,19.8
2014-08-13T09:52:16.241Z,19.82
2014-08-13T09:53:20.243Z,19.82
2014-08-13T09:54:25.230Z,19.88
2014-08-13T09:55:29.919Z,19.88
2014-08-13T09:56:34.593Z,19.96
2014-08-13T09:57:39.282Z,19.95
2014-08-13T09:58:43.957Z,19.98
2014-08-13T09:59:49.240Z,20.05
2014-08-13T10:00:54.226Z,19.98
2014-08-13T10:01:58.916Z,19.95
2014-08-13T10:03:03.590Z,19.96
2014-08-13T10:04:08.279Z,20.02
2014-08-13T10:05:13.266Z,19.93
2014-08-13T10:06:17.940Z,19.86
2014-08-13T10:07:22.629Z,19.94
2014-08-13T10:08:27.319Z,19.84
2014-08-13T10:09:32.008Z,19.64
2014-08-13T10:10:36.683Z,19.62
2014-08-13T10:11:41.372Z,19.9
2014-08-13T10:12:46.046Z,19.93
2014-08-13T10:13:50.736Z,19.87
2014-08-13T10:14:55.707Z,19.89
2014-08-13T10:16:00.693Z,19.86
2014-08-13T10:17:05.679Z,19.81
2014-08-13T10:18:10.353Z,19.9
2014-08-13T10:19:15.043Z,19.98
2014-08-13T10:20:19.718Z,19.94
2014-08-13T10:21:24.407Z,19.77
2014-08-13T10:22:29.097Z,19.95
2014-08-13T10:23:33.770Z,19.68
2014-08-13T10:24:38.461Z,19.61
2014-08-13T10:25:43.446Z,19.5
2014-08-13T10:26:48.433Z,19.6
2014-08-13T10:27:53.122Z,19.64
2014-08-13T10:28:57.797Z,19.61
2014-08-13T10:30:02.487Z,19.57
2014-08-13T10:31:07.175Z,19.67
2014-08-13T10:32:11.866Z,19.37
2014-08-13T10:33:16.555Z,19.51
2014-08-13T10:34:21.229Z,19.67
2014-08-13T10:35:25.918Z,19.57
2014-08-13T10:36:30.905Z,19.51
2014-08-13T10:37:35.876Z,19.41
2014-08-13T10:38:40.566Z,19.41
2014-08-13T10:39:45.551Z,19.5
2014-08-13T10:40:50.241Z,19.34
2014-08-13T10:41:54.916Z,19.22
2014-08-13T10:42:59.604Z,19.4
2014-08-13T10:44:04.295Z,19.36
2014-08-13T10:45:08.969Z,19.36
2014-08-13T10:46:13.657Z,19.24
2014-08-13T10:47:18.645Z,19.17
2014-08-13T10:48:23.334Z,19.19
2014-08-13T10:49:28.320Z,19.15
2014-08-13T10:50:33.010Z,19
2014-08-13T10:51:37.981Z,19.06
2014-08-13T10:52:42.670Z,19.16
2014-08-13T10:53:47.343Z,19.25
2014-08-13T10:54:52.033Z,19.36
2014-08-13T10:55:56.706Z,19.37
2014-08-13T10:57:01.412Z,19.33
2014-08-13T10:58:06.085Z,19.37
2014-08-13T10:59:10.775Z,19.46
2014-08-13T11:00:15.761Z,19.46
2014-08-13T11:01:20.734Z,19.62
2014-08-13T11:02:25.423Z,19.56
2014-08-13T11:03:30.112Z,19.56
2014-08-13T11:04:34.787Z,19.62
2014-08-13T11:05:39.772Z,19.66
2014-08-13T11:06:44.446Z,19.64
2014-08-13T11:07:49.137Z,19.61
2014-08-13T11:08:53.826Z,19.65
2014-08-13T11:09:58.501Z,19.67
2014-08-13T11:11:03.190Z,19.64
2014-08-13T11:12:07.880Z,19.68
2014-08-13T11:13:12.865Z,19.69
2014-08-13T11:14:17.555Z,19.5
2014-08-13T11:15:22.527Z,19.47
2014-08-13T11:16:27.215Z,19.6
2014-08-13T11:17:31.906Z,19.53
2014-08-13T11:18:36.595Z,19.5
2014-08-13T11:19:41.566Z,19.5
2014-08-13T11:20:46.255Z,19.64
2014-08-13T11:21:50.961Z,19.75
2014-08-13T11:22:55.634Z,19.76
2014-08-13T11:24:00.325Z,19.49
2014-08-13T11:25:05.013Z,19.4
2014-08-13T11:26:10.000Z,19.55
2014-08-13T11:27:14.987Z,19.31
2014-08-13T11:28:19.958Z,19.56
2014-08-13T11:29:24.646Z,19.4
2014-08-13T11:30:29.337Z,19.51
2014-08-13T11:31:34.026Z,19.48
2014-08-13T11:32:38.699Z,19.38
2014-08-13T11:33:43.390Z,19.36
2014-08-13T11:34:48.376Z,19.23
2014-08-13T11:35:53.066Z,19.29
2014-08-13T11:36:57.740Z,19.21
2014-08-13T11:38:02.430Z,19.26
2014-08-13T11:39:07.119Z,19.42
2014-08-13T11:40:11.808Z,19.61
2014-08-13T11:41:16.483Z,19.38
2014-08-13T11:42:21.171Z,19.53
2014-08-13T11:43:26.159Z,19.45
2014-08-13T11:44:30.848Z,19.46
2014-08-13T11:45:35.521Z,19.48
2014-08-13T11:46:40.212Z,19.6
2014-08-13T11:47:45.198Z,19.6
2014-08-13T11:48:50.184Z,19.6
2014-08-13T11:49:54.858Z,19.53
2014-08-13T11:50:59.845Z,19.58
2014-08-13T11:52:04.534Z,19.76
2014-08-13T11:53:09.224Z,19.7
2014-08-13T11:54:14.211Z,19.71
2014-08-13T11:55:18.900Z,19.61
2014-08-13T11:56:24.184Z,19.79
2014-08-13T11:57:28.873Z,19.87
2014-08-13T11:58:33.546Z,19.86
2014-08-13T11:59:38.252Z,19.82
2014-08-13T12:00:42.942Z,19.6
2014-08-13T12:01:47.630Z,19.68
2014-08-13T12:02:52.320Z,19.49
2014-08-13T12:03:57.010Z,19.59
2014-08-13T12:05:01.684Z,20.03
2014-08-13T12:06:06.374Z,19.8
2014-08-13T12:07:11.361Z,19.87
2014-08-13T12:08:16.050Z,19.82
2014-08-13T12:09:20.723Z,19.96
2014-08-13T12:10:25.711Z,19.82
2014-08-13T12:11:30.399Z,20.02
2014-08-13T12:12:35.371Z,19.92
2014-08-13T12:13:40.061Z,19.82
2014-08-13T12:14:44.733Z,20.12
2014-08-13T12:15:49.721Z,20.26
2014-08-13T12:16:54.409Z,19.73
2014-08-13T12:17:59.397Z,19.46
2014-08-13T12:19:04.071Z,19.66
2014-08-13T12:20:09.073Z,19.5
2014-08-13T12:21:14.043Z,19.4
2014-08-13T12:22:19.030Z,19.7
2014-08-13T12:23:23.719Z,19.93
2014-08-13T12:24:28.409Z,20.06
2014-08-13T12:25:33.098Z,19.93
2014-08-13T12:26:37.773Z,19.68
2014-08-13T12:27:42.462Z,19.87
2014-08-13T12:28:47.465Z,19.94
2014-08-13T12:29:52.153Z,20.1
2014-08-13T12:30:56.140Z,20.22
2014-08-13T12:32:00.830Z,20.43
2014-08-13T12:33:05.519Z,20.5
2014-08-13T12:34:10.490Z,20.41
2014-08-13T12:35:15.180Z,20.29
2014-08-13T12:36:19.869Z,20.54
2014-08-13T12:37:24.544Z,20.42
2014-08-13T12:38:29.233Z,20.19
2014-08-13T12:39:33.922Z,20.34
2014-08-13T12:40:38.597Z,20.26
2014-08-13T12:41:43.285Z,20.42
2014-08-13T12:42:48.273Z,20.31
2014-08-13T12:43:52.962Z,19.9
2014-08-13T12:44:57.635Z,20.02
2014-08-13T12:46:02.623Z,20.24
2014-08-13T12:47:07.312Z,20.32
2014-08-13T12:48:11.986Z,20.23
2014-08-13T12:49:16.972Z,20.28
2014-08-13T12:50:21.959Z,20.41
2014-08-13T12:51:26.648Z,20.16
2014-08-13T12:52:31.323Z,20.26
2014-08-13T12:53:36.012Z,20.2
2014-08-13T12:54:40.998Z,20.26
2014-08-13T12:55:45.673Z,20.24
2014-08-13T12:56:50.361Z,20.3
2014-08-13T12:57:55.035Z,20.5
2014-08-13T12:58:59.726Z,20.4
2014-08-13T13:00:04.415Z,20.42
2014-08-13T13:01:09.089Z,20.54
2014-08-13T13:02:13.779Z,20.59
2014-08-13T13:03:18.468Z,20.86
2014-08-13T13:04:23.142Z,21.23
2014-08-13T13:05:27.831Z,21.36
2014-08-13T13:06:32.521Z,21.29
2014-08-13T13:07:37.195Z,21.29
2014-08-13T13:08:41.884Z,21.11
2014-08-13T13:09:46.574Z,20.76
2014-08-13T13:10:51.263Z,20.16
2014-08-13T13:11:56.235Z,20.41
2014-08-13T13:13:00.924Z,20.22
2014-08-13T13:14:05.614Z,20.45
2014-08-13T13:15:10.304Z,20.46
2014-08-13T13:16:15.290Z,20.17
2014-08-13T13:17:19.979Z,20.11
2014-08-13T13:18:24.949Z,20.05
2014-08-13T13:19:29.640Z,20.06
2014-08-13T13:20:34.626Z,20.2
2014-08-13T13:21:39.316Z,20.22
2014-08-13T13:22:44.006Z,20.07
2014-08-13T13:23:48.695Z,20.26
2014-08-13T13:24:53.368Z,20.38
2014-08-13T13:25:58.074Z,20.61
2014-08-13T13:27:02.764Z,20.78
2014-08-13T13:28:07.453Z,20.72
2014-08-13T13:29:12.143Z,20.4
2014-08-13T13:30:16.833Z,20.69
2014-08-13T13:31:21.522Z,20.55
2014-08-13T13:32:26.196Z,20.52
2014-08-13T13:33:30.885Z,20.72
2014-08-13T13:34:35.872Z,20.57
2014-08-13T13:35:40.561Z,20.61
2014-08-13T13:36:45.235Z,20.63
2014-08-13T13:37:50.222Z,20.54
2014-08-13T13:38:54.912Z,20.52
2014-08-13T13:39:59.602Z,20.43
2014-08-13T13:41:04.274Z,20.4
2014-08-13T13:42:08.965Z,20.34
2014-08-13T13:43:13.653Z,20.65
2014-08-13T13:44:18.641Z,20.6
2014-08-13T13:45:23.626Z,20.73
2014-08-13T13:46:28.614Z,20.55
2014-08-13T13:47:33.303Z,20.32
2014-08-13T13:48:38.289Z,20.37
2014-08-13T13:49:42.979Z,20.46
2014-08-13T13:50:47.668Z,20.7
2014-08-13T13:51:52.639Z,20.57
2014-08-13T13:52:57.329Z,20.42
2014-08-13T13:54:02.018Z,20.5
2014-08-13T13:55:07.005Z,20.34
2014-08-13T13:56:11.695Z,20.51
2014-08-13T13:57:16.384Z,20.48
2014-08-13T13:58:21.074Z,20.46